Loyal, WI

9:09 AM CST on January 16, 2017 (GMT -0600)
Backyard, N. Andrews Ave | | Change Station
Active Advisory: Winter Weather Advisory

Elev 1161 ft 44.77 °N, 90.60 °W | Updated 0 second ago

Partly Cloudy
Partly Cloudy
14.4 °F
Feels Like 14 °F
N
0.0
Wind Variable Wind from North
Gusts 0.0 mph

Today
High -- | Low -- °F
--% Chance of Precip.
Yesterday
High -- | Low -- °F
Precip. -- in
Pressure 30.27 in
Visibility 3.0 miles
Clouds Clear
Windchill 14 °F
Dew Point 6 °F
Humidity 70%
Rainfall 0.00 in
Snow Depth Not available.
7:35 AM 4:49 PM
Waning Gibbous, 80% visible
METAR KMFI 161454Z AUTO 05004KT 3SM BR CLR M12/M14 A3018 RMK AO2 SLP248 I3000 T11171139 58003
Pressure 30.27 in
Visibility 3.0 miles
Clouds Clear
Windchill 14 °F
Dew Point 6 °F
Humidity 70%
Rainfall 0.00 in
Snow Depth Not available.
7:35 AM 4:49 PM
Waning Gibbous, 80% visible
METAR KMFI 161454Z AUTO 05004KT 3SM BR CLR M12/M14 A3018 RMK AO2 SLP248 I3000 T11171139 58003

Get Your Daily Forecast Email!

Thanks for signing up!

Be on the lookout for a verification email in your inbox.

You'll start receiving the daily forecast at 8 AM.

×

10-Day Weather Forecast

Almanac

Astronomy

Jan. 16, 2017 Rise Set
Actual Time
Civil Twilight
Nautical Twilight
Astronomical Twilight
Moon
Length of Visible Light
Length of Day
Tomorrow will be .
, % of the Moon is Illuminated

Today's Extremes

State Highs State Lows

Community

WunderPhotos

Upload Photos

1,962,540 photos uploaded!

WunderBlog® & News

Nearby

Air Quality

  Air Quality AQ Index Pollutant
Not available.

Snow Depth

Station Depth Elevation

Earthquake Activity

City Distance Mag. Time & Date
Minimum magnitude displayed is 2.5.

Coastal Water Temperatures

Place Temperature

Stations

Nearby Weather Stations

Station Location Temp. Windchill Dew Point Humidity Wind Precip. Elev Updated Type
                   

Watches & Warnings

Winter Weather Advisory
Issued: 7:50 AM CST Jan. 16, 2017 – National Weather Service

... Winter Weather Advisory remains in effect from noon today to
noon CST Tuesday...

* expect a wintry mix to develop around noon and then diminish
Tuesday morning.

* Total snow and sleet accumulations of up to 1 inch and ice
accumulations of a glaze to 1/10 of an inch.

* Look for reduced visibilities at times.

* The ice will result in difficult travel conditions.

Precautionary/preparedness actions...

A Winter Weather Advisory means that periods of snow... sleet or
freezing rain will cause travel difficulties. Be prepared for
slippery roads and limited visibilities... and use caution while
driving. The latest Road conditions for the state you are calling
from can be obtained by calling 5 1 1.



Rieck